sensor_id;sensor_type;location;lat;lon;timestamp;pressure;altitude;pressure_sealevel;temperature;humidity
16331;BME280;8275;48.206;16.340;2024-03-17T00:01:38;99730.88;;;16.01;43.80
16331;BME280;8275;48.206;16.340;2024-03-17T00:04:08;99728.66;;;16.03;43.71
16331;BME280;8275;48.206;16.340;2024-03-17T00:06:36;99723.94;;;16.04;43.78
16331;BME280;8275;48.206;16.340;2024-03-17T00:09:02;99719.53;;;16.03;43.87
16331;BME280;8275;48.206;16.340;2024-03-17T00:11:32;99722.88;;;16.00;43.63
16331;BME280;8275;48.206;16.340;2024-03-17T00:14:01;99730.03;;;15.96;43.61
16331;BME280;8275;48.206;16.340;2024-03-17T00:16:28;99730.88;;;15.91;43.75
16331;BME280;8275;48.206;16.340;2024-03-17T00:18:55;99727.03;;;15.87;43.63
16331;BME280;8275;48.206;16.340;2024-03-17T00:21:23;99724.28;;;15.82;43.72
16331;BME280;8275;48.206;16.340;2024-03-17T00:23:52;99720.72;;;15.77;43.82
16331;BME280;8275;48.206;16.340;2024-03-17T00:26:18;99730.09;;;15.71;44.04
16331;BME280;8275;48.206;16.340;2024-03-17T00:28:46;99741.97;;;15.66;44.24
16331;BME280;8275;48.206;16.340;2024-03-17T00:31:14;99739.50;;;15.60;44.07
16331;BME280;8275;48.206;16.340;2024-03-17T00:33:41;99732.88;;;15.56;44.65
16331;BME280;8275;48.206;16.340;2024-03-17T00:36:08;99727.91;;;15.53;44.48
16331;BME280;8275;48.206;16.340;2024-03-17T00:38:37;99723.22;;;15.48;44.63
16331;BME280;8275;48.206;16.340;2024-03-17T00:41:04;99722.13;;;15.44;44.61
16331;BME280;8275;48.206;16.340;2024-03-17T00:43:32;99716.56;;;15.39;44.70
16331;BME280;8275;48.206;16.340;2024-03-17T00:45:58;99720.72;;;15.36;44.52
16331;BME280;8275;48.206;16.340;2024-03-17T00:48:26;99719.88;;;15.36;44.79
16331;BME280;8275;48.206;16.340;2024-03-17T00:50:56;99722.09;;;15.34;44.50
16331;BME280;8275;48.206;16.340;2024-03-17T00:53:24;99721.00;;;15.35;44.63
16331;BME280;8275;48.206;16.340;2024-03-17T00:55:55;99738.66;;;15.34;44.79
16331;BME280;8275;48.206;16.340;2024-03-17T00:58:24;99728.69;;;15.38;44.51
16331;BME280;8275;48.206;16.340;2024-03-17T01:00:51;99746.09;;;15.38;44.38
16331;BME280;8275;48.206;16.340;2024-03-17T01:03:18;99745.56;;;15.41;44.55
16331;BME280;8275;48.206;16.340;2024-03-17T01:05:45;99740.31;;;15.45;44.41
16331;BME280;8275;48.206;16.340;2024-03-17T01:08:14;99757.72;;;15.51;44.40
16331;BME280;8275;48.206;16.340;2024-03-17T01:10:41;99750.53;;;15.55;44.15
16331;BME280;8275;48.206;16.340;2024-03-17T01:13:10;99738.66;;;15.59;43.81
16331;BME280;8275;48.206;16.340;2024-03-17T01:15:39;99742.25;;;15.60;43.84
16331;BME280;8275;48.206;16.340;2024-03-17T01:18:07;99752.22;;;15.61;43.79
16331;BME280;8275;48.206;16.340;2024-03-17T01:20:36;99753.31;;;15.60;43.59
16331;BME280;8275;48.206;16.340;2024-03-17T01:23:04;99755.78;;;15.61;43.60
16331;BME280;8275;48.206;16.340;2024-03-17T01:25:33;99762.13;;;15.62;43.71
16331;BME280;8275;48.206;16.340;2024-03-17T01:28:03;99767.13;;;15.65;43.43
16331;BME280;8275;48.206;16.340;2024-03-17T01:30:31;99764.06;;;15.66;43.40
16331;BME280;8275;48.206;16.340;2024-03-17T01:33:00;99774.56;;;15.69;43.35
16331;BME280;8275;48.206;16.340;2024-03-17T01:35:26;99770.44;;;15.72;43.30
16331;BME280;8275;48.206;16.340;2024-03-17T01:37:54;99764.63;;;15.73;43.08
16331;BME280;8275;48.206;16.340;2024-03-17T01:40:20;99761.56;;;15.75;43.04
16331;BME280;8275;48.206;16.340;2024-03-17T01:42:48;99766.84;;;15.76;43.09
16331;BME280;8275;48.206;16.340;2024-03-17T01:45:26;99773.44;;;15.75;42.79
16331;BME280;8275;48.206;16.340;2024-03-17T01:47:56;99768.47;;;15.77;42.90
16331;BME280;8275;48.206;16.340;2024-03-17T01:50:24;99770.97;;;15.79;42.97
16331;BME280;8275;48.206;16.340;2024-03-17T01:52:55;99768.22;;;15.79;42.92
16331;BME280;8275;48.206;16.340;2024-03-17T01:55:23;99764.63;;;15.78;42.93
16331;BME280;8275;48.206;16.340;2024-03-17T01:57:50;99770.44;;;15.77;42.94
16331;BME280;8275;48.206;16.340;2024-03-17T02:00:18;99786.16;;;15.76;42.95
16331;BME280;8275;48.206;16.340;2024-03-17T02:02:45;99771.53;;;15.76;42.93
16331;BME280;8275;48.206;16.340;2024-03-17T02:05:13;99777.34;;;15.74;42.73
16331;BME280;8275;48.206;16.340;2024-03-17T02:07:41;99782.31;;;15.72;42.73
16331;BME280;8275;48.206;16.340;2024-03-17T02:10:08;99790.59;;;15.67;42.77
16331;BME280;8275;48.206;16.340;2024-03-17T02:12:36;99794.44;;;15.66;42.69
16331;BME280;8275;48.206;16.340;2024-03-17T02:15:04;99801.63;;;15.62;42.66
16331;BME280;8275;48.206;16.340;2024-03-17T02:17:32;99803.31;;;15.58;42.52
16331;BME280;8275;48.206;16.340;2024-03-17T02:19:59;99804.94;;;15.54;42.28
16331;BME280;8275;48.206;16.340;2024-03-17T02:22:28;99809.66;;;15.49;42.08
16331;BME280;8275;48.206;16.340;2024-03-17T02:24:54;99802.19;;;15.44;41.94
16331;BME280;8275;48.206;16.340;2024-03-17T02:27:22;99815.13;;;15.38;41.68
16331;BME280;8275;48.206;16.340;2024-03-17T02:29:48;99809.88;;;15.32;41.26
16331;BME280;8275;48.206;16.340;2024-03-17T02:32:16;99810.13;;;15.25;41.00
16331;BME280;8275;48.206;16.340;2024-03-17T02:34:43;99805.97;;;15.18;40.86
16331;BME280;8275;48.206;16.340;2024-03-17T02:37:11;99809.84;;;15.12;40.73
16331;BME280;8275;48.206;16.340;2024-03-17T02:39:39;99805.69;;;15.04;40.41
16331;BME280;8275;48.206;16.340;2024-03-17T02:42:08;99811.47;;;14.98;40.20
16331;BME280;8275;48.206;16.340;2024-03-17T02:44:37;99819.16;;;14.91;40.19
16331;BME280;8275;48.206;16.340;2024-03-17T02:47:06;99819.13;;;14.86;39.95
16331;BME280;8275;48.206;16.340;2024-03-17T02:49:36;99827.66;;;14.79;39.90
16331;BME280;8275;48.206;16.340;2024-03-17T02:52:07;99830.41;;;14.74;39.64
16331;BME280;8275;48.206;16.340;2024-03-17T02:54:35;99827.34;;;14.65;39.66
16331;BME280;8275;48.206;16.340;2024-03-17T02:57:05;99829.25;;;14.60;39.47
16331;BME280;8275;48.206;16.340;2024-03-17T02:59:34;99833.34;;;14.52;39.48
16331;BME280;8275;48.206;16.340;2024-03-17T03:02:01;99840.19;;;14.45;39.50
16331;BME280;8275;48.206;16.340;2024-03-17T03:04:28;99829.44;;;14.38;39.38
16331;BME280;8275;48.206;16.340;2024-03-17T03:06:55;99838.75;;;14.32;39.44
16331;BME280;8275;48.206;16.340;2024-03-17T03:09:23;99849.72;;;14.27;39.42
16331;BME280;8275;48.206;16.340;2024-03-17T03:11:57;99844.75;;;14.24;39.51
16331;BME280;8275;48.206;16.340;2024-03-17T03:14:27;99835.06;;;14.22;39.58
16331;BME280;8275;48.206;16.340;2024-03-17T03:16:55;99834.00;;;14.23;39.52
16331;BME280;8275;48.206;16.340;2024-03-17T03:19:22;99832.84;;;14.19;39.55
16331;BME280;8275;48.206;16.340;2024-03-17T03:21:50;99833.91;;;14.13;39.53
16331;BME280;8275;48.206;16.340;2024-03-17T03:24:17;99837.16;;;14.04;39.29
16331;BME280;8275;48.206;16.340;2024-03-17T03:26:45;99831.31;;;13.96;39.29
16331;BME280;8275;48.206;16.340;2024-03-17T03:29:12;99851.13;;;13.93;39.49
16331;BME280;8275;48.206;16.340;2024-03-17T03:31:42;99863.25;;;13.92;39.61
16331;BME280;8275;48.206;16.340;2024-03-17T03:34:10;99868.75;;;13.92;39.65
16331;BME280;8275;48.206;16.340;2024-03-17T03:36:38;99867.91;;;13.91;39.60
16331;BME280;8275;48.206;16.340;2024-03-17T03:39:07;99864.88;;;13.93;39.48
16331;BME280;8275;48.206;16.340;2024-03-17T03:41:37;99869.59;;;13.92;39.61
16331;BME280;8275;48.206;16.340;2024-03-17T03:44:05;99871.19;;;13.88;39.41
16331;BME280;8275;48.206;16.340;2024-03-17T03:46:32;99879.16;;;13.85;39.35
16331;BME280;8275;48.206;16.340;2024-03-17T03:49:01;99873.03;;;13.78;39.49
16331;BME280;8275;48.206;16.340;2024-03-17T03:51:28;99873.53;;;13.70;39.56
16331;BME280;8275;48.206;16.340;2024-03-17T03:53:56;99883.94;;;13.63;39.61
16331;BME280;8275;48.206;16.340;2024-03-17T03:56:23;99873.94;;;13.57;39.64
16331;BME280;8275;48.206;16.340;2024-03-17T03:58:51;99882.41;;;13.50;39.78
16331;BME280;8275;48.206;16.340;2024-03-17T04:01:19;99872.19;;;13.46;39.93
16331;BME280;8275;48.206;16.340;2024-03-17T04:03:48;99880.97;;;13.43;39.89
16331;BME280;8275;48.206;16.340;2024-03-17T04:06:17;99883.41;;;13.39;39.92
16331;BME280;8275;48.206;16.340;2024-03-17T04:08:45;99886.94;;;13.34;39.78
16331;BME280;8275;48.206;16.340;2024-03-17T04:11:12;99894.06;;;13.30;40.00
16331;BME280;8275;48.206;16.340;2024-03-17T04:13:40;99895.41;;;13.28;39.93
16331;BME280;8275;48.206;16.340;2024-03-17T04:16:08;99896.44;;;13.22;40.15
16331;BME280;8275;48.206;16.340;2024-03-17T04:18:36;99898.03;;;13.18;40.25
16331;BME280;8275;48.206;16.340;2024-03-17T04:21:05;99899.38;;;13.15;40.38
16331;BME280;8275;48.206;16.340;2024-03-17T04:23:35;99908.41;;;13.11;40.37
16331;BME280;8275;48.206;16.340;2024-03-17T04:26:04;99901.50;;;13.08;40.27
16331;BME280;8275;48.206;16.340;2024-03-17T04:28:33;99907.53;;;13.05;40.03
16331;BME280;8275;48.206;16.340;2024-03-17T04:31:05;99901.66;;;13.02;40.10
16331;BME280;8275;48.206;16.340;2024-03-17T04:33:32;99901.66;;;13.02;40.07
16331;BME280;8275;48.206;16.340;2024-03-17T04:36:00;99906.59;;;13.00;40.09
16331;BME280;8275;48.206;16.340;2024-03-17T04:38:28;99900.25;;;12.99;39.80
16331;BME280;8275;48.206;16.340;2024-03-17T04:40:57;99913.72;;;12.96;39.64
16331;BME280;8275;48.206;16.340;2024-03-17T04:43:31;99906.78;;;12.93;39.77
16331;BME280;8275;48.206;16.340;2024-03-17T04:46:03;99911.38;;;12.88;39.60
16331;BME280;8275;48.206;16.340;2024-03-17T04:48:33;99912.72;;;12.85;39.82
16331;BME280;8275;48.206;16.340;2024-03-17T04:51:01;99922.59;;;12.81;39.82
16331;BME280;8275;48.206;16.340;2024-03-17T04:53:28;99928.00;;;12.76;39.83
16331;BME280;8275;48.206;16.340;2024-03-17T04:56:05;99922.13;;;12.67;39.88
16331;BME280;8275;48.206;16.340;2024-03-17T04:58:33;99928.97;;;12.65;40.01
16331;BME280;8275;48.206;16.340;2024-03-17T05:01:05;99932.47;;;12.60;39.93
16331;BME280;8275;48.206;16.340;2024-03-17T05:03:33;99921.75;;;12.59;39.92
16331;BME280;8275;48.206;16.340;2024-03-17T05:06:01;99927.47;;;12.57;40.12
16331;BME280;8275;48.206;16.340;2024-03-17T05:08:28;99926.06;;;12.55;39.98
16331;BME280;8275;48.206;16.340;2024-03-17T05:10:59;99928.22;;;12.53;40.18
16331;BME280;8275;48.206;16.340;2024-03-17T05:13:28;99930.13;;;12.52;40.27
16331;BME280;8275;48.206;16.340;2024-03-17T05:15:55;99934.84;;;12.52;39.99
16331;BME280;8275;48.206;16.340;2024-03-17T05:18:23;99931.25;;;12.51;40.13
16331;BME280;8275;48.206;16.340;2024-03-17T05:20:58;99936.16;;;12.49;40.16
16331;BME280;8275;48.206;16.340;2024-03-17T05:23:27;99931.75;;;12.48;40.09
16331;BME280;8275;48.206;16.340;2024-03-17T05:25:56;99934.75;;;12.47;40.04
16331;BME280;8275;48.206;16.340;2024-03-17T05:28:25;99938.56;;;12.46;39.92
16331;BME280;8275;48.206;16.340;2024-03-17T05:30:54;99945.41;;;12.43;40.01
16331;BME280;8275;48.206;16.340;2024-03-17T05:33:24;99943.19;;;12.40;39.91
16331;BME280;8275;48.206;16.340;2024-03-17T05:35:53;99940.66;;;12.39;40.08
16331;BME280;8275;48.206;16.340;2024-03-17T05:38:22;99959.31;;;12.37;39.81
16331;BME280;8275;48.206;16.340;2024-03-17T05:40:55;99957.41;;;12.37;40.07
16331;BME280;8275;48.206;16.340;2024-03-17T05:43:23;99960.72;;;12.39;39.69
16331;BME280;8275;48.206;16.340;2024-03-17T05:45:53;99967.63;;;12.42;39.94
16331;BME280;8275;48.206;16.340;2024-03-17T05:48:21;99965.56;;;12.49;39.81
16331;BME280;8275;48.206;16.340;2024-03-17T05:50:48;99960.97;;;12.54;39.79
16331;BME280;8275;48.206;16.340;2024-03-17T05:53:17;99963.78;;;12.59;39.47
16331;BME280;8275;48.206;16.340;2024-03-17T05:55:45;99963.28;;;12.62;39.64
16331;BME280;8275;48.206;16.340;2024-03-17T05:58:12;99969.13;;;12.66;39.56
16331;BME280;8275;48.206;16.340;2024-03-17T06:00:40;99972.44;;;12.68;39.44
16331;BME280;8275;48.206;16.340;2024-03-17T06:03:09;99974.94;;;12.69;39.25
16331;BME280;8275;48.206;16.340;2024-03-17T06:05:39;99975.78;;;12.70;39.17
16331;BME280;8275;48.206;16.340;2024-03-17T06:08:07;99978.53;;;12.70;39.22
16331;BME280;8275;48.206;16.340;2024-03-17T06:10:42;99977.19;;;12.73;39.38
16331;BME280;8275;48.206;16.340;2024-03-17T06:13:09;99969.59;;;12.80;39.01
16331;BME280;8275;48.206;16.340;2024-03-17T06:15:39;99968.06;;;12.89;39.20
16331;BME280;8275;48.206;16.340;2024-03-17T06:18:10;99971.19;;;12.97;38.94
16331;BME280;8275;48.206;16.340;2024-03-17T06:20:41;99966.59;;;13.03;38.70
16331;BME280;8275;48.206;16.340;2024-03-17T06:23:09;99956.28;;;13.10;38.87
16331;BME280;8275;48.206;16.340;2024-03-17T06:25:40;99963.16;;;13.12;38.49
16331;BME280;8275;48.206;16.340;2024-03-17T06:28:08;99965.69;;;13.14;38.30
16331;BME280;8275;48.206;16.340;2024-03-17T06:30:40;99952.75;;;13.14;37.90
16331;BME280;8275;48.206;16.340;2024-03-17T06:33:10;99955.50;;;13.14;38.03
16331;BME280;8275;48.206;16.340;2024-03-17T06:35:39;99961.00;;;13.14;37.94
16331;BME280;8275;48.206;16.340;2024-03-17T06:38:07;99959.91;;;13.15;37.78
16331;BME280;8275;48.206;16.340;2024-03-17T06:40:37;99980.84;;;13.16;37.87
16331;BME280;8275;48.206;16.340;2024-03-17T06:43:05;99982.50;;;13.17;37.81
16331;BME280;8275;48.206;16.340;2024-03-17T06:45:34;99979.50;;;13.19;37.79
16331;BME280;8275;48.206;16.340;2024-03-17T06:48:02;99967.97;;;13.22;37.73
16331;BME280;8275;48.206;16.340;2024-03-17T06:50:31;99973.88;;;13.30;37.71
16331;BME280;8275;48.206;16.340;2024-03-17T06:52:58;99975.06;;;13.40;37.74
16331;BME280;8275;48.206;16.340;2024-03-17T06:55:25;99976.28;;;13.49;37.33
16331;BME280;8275;48.206;16.340;2024-03-17T06:57:54;99977.78;;;13.61;37.27
16331;BME280;8275;48.206;16.340;2024-03-17T07:00:22;99971.28;;;13.72;36.92
16331;BME280;8275;48.206;16.340;2024-03-17T07:02:51;99981.56;;;13.82;36.75
16331;BME280;8275;48.206;16.340;2024-03-17T07:05:18;99978.38;;;13.90;36.30
16331;BME280;8275;48.206;16.340;2024-03-17T07:07:48;99985.91;;;13.99;36.58
16331;BME280;8275;48.206;16.340;2024-03-17T07:10:15;99981.56;;;14.08;36.63
16331;BME280;8275;48.206;16.340;2024-03-17T07:12:42;99993.00;;;14.22;36.37
16331;BME280;8275;48.206;16.340;2024-03-17T07:15:10;99988.69;;;14.31;36.04
16331;BME280;8275;48.206;16.340;2024-03-17T07:17:38;99983.22;;;14.36;35.31
16331;BME280;8275;48.206;16.340;2024-03-17T07:20:06;99984.06;;;14.42;35.07
16331;BME280;8275;48.206;16.340;2024-03-17T07:22:35;99983.84;;;14.48;35.05
16331;BME280;8275;48.206;16.340;2024-03-17T07:25:04;99992.16;;;14.53;34.97
16331;BME280;8275;48.206;16.340;2024-03-17T07:27:32;99986.16;;;14.61;34.78
16331;BME280;8275;48.206;16.340;2024-03-17T07:30:00;99996.13;;;14.67;34.83
16331;BME280;8275;48.206;16.340;2024-03-17T07:32:27;99995.03;;;14.73;34.53
16331;BME280;8275;48.206;16.340;2024-03-17T07:34:55;99990.13;;;14.81;34.60
16331;BME280;8275;48.206;16.340;2024-03-17T07:37:22;99988.81;;;14.88;34.54
16331;BME280;8275;48.206;16.340;2024-03-17T07:39:50;99999.34;;;14.96;34.52
16331;BME280;8275;48.206;16.340;2024-03-17T07:42:18;99996.38;;;15.08;34.35
16331;BME280;8275;48.206;16.340;2024-03-17T07:44:46;99993.63;;;15.13;34.09
16331;BME280;8275;48.206;16.340;2024-03-17T07:47:13;99982.38;;;15.19;34.01
16331;BME280;8275;48.206;16.340;2024-03-17T07:49:41;99988.72;;;15.25;33.47
16331;BME280;8275;48.206;16.340;2024-03-17T07:52:08;99999.50;;;15.31;33.53
16331;BME280;8275;48.206;16.340;2024-03-17T07:54:36;99984.91;;;15.36;33.00
16331;BME280;8275;48.206;16.340;2024-03-17T07:57:03;99990.44;;;15.41;32.45
16331;BME280;8275;48.206;16.340;2024-03-17T07:59:32;99997.34;;;15.43;32.43
16331;BME280;8275;48.206;16.340;2024-03-17T08:02:00;99997.09;;;15.45;32.47
16331;BME280;8275;48.206;16.340;2024-03-17T08:04:28;99990.53;;;15.51;32.73
16331;BME280;8275;48.206;16.340;2024-03-17T08:06:56;99996.06;;;15.56;32.96
16331;BME280;8275;48.206;16.340;2024-03-17T08:09:24;99983.09;;;15.62;32.93
16331;BME280;8275;48.206;16.340;2024-03-17T08:11:52;99985.59;;;15.73;32.93
16331;BME280;8275;48.206;16.340;2024-03-17T08:14:20;99990.34;;;15.88;33.00
16331;BME280;8275;48.206;16.340;2024-03-17T08:16:48;99977.09;;;16.00;32.90
16331;BME280;8275;48.206;16.340;2024-03-17T08:19:16;99989.00;;;16.15;32.75
16331;BME280;8275;48.206;16.340;2024-03-17T08:21:43;99980.44;;;16.27;32.39
16331;BME280;8275;48.206;16.340;2024-03-17T08:24:11;99981.53;;;16.36;32.46
16331;BME280;8275;48.206;16.340;2024-03-17T08:26:39;99979.34;;;16.48;32.05
16331;BME280;8275;48.206;16.340;2024-03-17T08:29:07;99972.13;;;16.62;32.35
16331;BME280;8275;48.206;16.340;2024-03-17T08:31:34;99971.28;;;16.77;32.19
16331;BME280;8275;48.206;16.340;2024-03-17T08:34:04;99977.91;;;16.86;31.28
16331;BME280;8275;48.206;16.340;2024-03-17T08:36:31;99968.50;;;16.92;30.97
16331;BME280;8275;48.206;16.340;2024-03-17T08:38:59;99965.97;;;16.96;30.87
16331;BME280;8275;48.206;16.340;2024-03-17T08:41:27;99957.13;;;16.99;30.95
16331;BME280;8275;48.206;16.340;2024-03-17T08:43:56;99974.81;;;17.08;30.54
16331;BME280;8275;48.206;16.340;2024-03-17T08:46:24;99961.22;;;17.06;29.67
16331;BME280;8275;48.206;16.340;2024-03-17T08:48:51;99966.22;;;17.04;29.89
16331;BME280;8275;48.206;16.340;2024-03-17T08:51:20;99959.59;;;17.00;29.70
16331;BME280;8275;48.206;16.340;2024-03-17T08:53:47;99969.84;;;17.00;29.47
16331;BME280;8275;48.206;16.340;2024-03-17T08:56:15;99962.38;;;16.95;29.60
16331;BME280;8275;48.206;16.340;2024-03-17T08:58:42;99965.97;;;16.96;29.77
16331;BME280;8275;48.206;16.340;2024-03-17T09:01:09;99956.00;;;17.00;29.91
16331;BME280;8275;48.206;16.340;2024-03-17T09:03:41;99947.13;;;17.08;29.98
16331;BME280;8275;48.206;16.340;2024-03-17T09:06:15;99955.38;;;17.18;30.04
16331;BME280;8275;48.206;16.340;2024-03-17T09:08:44;99955.09;;;17.24;29.73
16331;BME280;8275;48.206;16.340;2024-03-17T09:11:13;99952.28;;;17.29;29.36
16331;BME280;8275;48.206;16.340;2024-03-17T09:13:40;99942.31;;;17.33;29.73
16331;BME280;8275;48.206;16.340;2024-03-17T09:16:08;99947.00;;;17.38;29.48
16331;BME280;8275;48.206;16.340;2024-03-17T09:18:39;99932.88;;;17.39;29.78
16331;BME280;8275;48.206;16.340;2024-03-17T09:21:08;99945.28;;;17.47;29.73
16331;BME280;8275;48.206;16.340;2024-03-17T09:23:36;99945.00;;;17.53;29.75
16331;BME280;8275;48.206;16.340;2024-03-17T09:26:08;99933.38;;;17.51;29.21
16331;BME280;8275;48.206;16.340;2024-03-17T09:28:37;99938.38;;;17.44;29.34
16331;BME280;8275;48.206;16.340;2024-03-17T09:31:05;99924.56;;;17.39;29.21
16331;BME280;8275;48.206;16.340;2024-03-17T09:33:34;99921.50;;;17.36;29.40
16331;BME280;8275;48.206;16.340;2024-03-17T09:36:04;99920.97;;;17.34;29.52
16331;BME280;8275;48.206;16.340;2024-03-17T09:38:33;99933.16;;;17.38;29.47
16331;BME280;8275;48.206;16.340;2024-03-17T09:41:02;99924.25;;;17.41;29.16
16331;BME280;8275;48.206;16.340;2024-03-17T09:43:33;99920.06;;;17.48;29.43
16331;BME280;8275;48.206;16.340;2024-03-17T09:46:03;99931.66;;;17.61;29.14
16331;BME280;8275;48.206;16.340;2024-03-17T09:48:31;99927.41;;;17.73;28.77
16331;BME280;8275;48.206;16.340;2024-03-17T09:51:01;99924.31;;;17.80;28.79
16331;BME280;8275;48.206;16.340;2024-03-17T09:53:31;99916.25;;;17.88;28.78
16331;BME280;8275;48.206;16.340;2024-03-17T09:56:08;99908.69;;;17.94;28.90
16331;BME280;8275;48.206;16.340;2024-03-17T09:58:37;99916.41;;;18.02;28.67
16331;BME280;8275;48.206;16.340;2024-03-17T10:01:05;99914.72;;;18.06;28.14
16331;BME280;8275;48.206;16.340;2024-03-17T10:03:43;99913.00;;;18.10;28.25
16331;BME280;8275;48.206;16.340;2024-03-17T10:06:12;99906.28;;;18.21;28.35
16331;BME280;8275;48.206;16.340;2024-03-17T10:08:42;99902.00;;;18.34;28.06
16331;BME280;8275;48.206;16.340;2024-03-17T10:11:10;99901.06;;;18.48;28.03
16331;BME280;8275;48.206;16.340;2024-03-17T10:13:40;99902.81;;;18.63;27.70
16331;BME280;8275;48.206;16.340;2024-03-17T10:16:23;99898.75;;;18.79;27.86
16331;BME280;8275;48.206;16.340;2024-03-17T10:19:06;99898.00;;;18.97;27.98
16331;BME280;8275;48.206;16.340;2024-03-17T10:21:37;99880.25;;;19.17;27.63
16331;BME280;8275;48.206;16.340;2024-03-17T10:24:12;99887.63;;;19.26;27.49
16331;BME280;8275;48.206;16.340;2024-03-17T10:26:43;99884.78;;;19.31;26.72
16331;BME280;8275;48.206;16.340;2024-03-17T10:29:25;99888.00;;;19.20;26.17
16331;BME280;8275;48.206;16.340;2024-03-17T10:31:54;99885.56;;;19.13;26.60
16331;BME280;8275;48.206;16.340;2024-03-17T10:34:22;99886.78;;;19.07;26.42
16331;BME280;8275;48.206;16.340;2024-03-17T10:36:51;99876.34;;;18.99;26.45
16331;BME280;8275;48.206;16.340;2024-03-17T10:39:28;99873.56;;;18.99;27.01
16331;BME280;8275;48.206;16.340;2024-03-17T10:42:00;99864.41;;;18.99;26.78
16331;BME280;8275;48.206;16.340;2024-03-17T10:44:29;99856.06;;;18.99;26.84
16331;BME280;8275;48.206;16.340;2024-03-17T10:46:59;99862.03;;;19.11;27.05
16331;BME280;8275;48.206;16.340;2024-03-17T10:49:30;99866.00;;;19.23;26.72
16331;BME280;8275;48.206;16.340;2024-03-17T10:52:00;99867.50;;;19.34;26.43
16331;BME280;8275;48.206;16.340;2024-03-17T10:54:28;99864.16;;;19.37;26.01
16331;BME280;8275;48.206;16.340;2024-03-17T10:57:07;99861.44;;;19.32;26.05
16331;BME280;8275;48.206;16.340;2024-03-17T10:59:45;99854.81;;;19.28;26.12
16331;BME280;8275;48.206;16.340;2024-03-17T11:02:23;99852.53;;;19.35;26.06
16331;BME280;8275;48.206;16.340;2024-03-17T11:04:52;99854.41;;;19.40;26.05
16331;BME280;8275;48.206;16.340;2024-03-17T11:07:21;99856.44;;;19.53;25.83
16331;BME280;8275;48.206;16.340;2024-03-17T11:09:50;99851.19;;;19.70;25.67
16331;BME280;8275;48.206;16.340;2024-03-17T11:12:44;99845.00;;;20.05;26.33
16331;BME280;8275;48.206;16.340;2024-03-17T11:15:40;99840.28;;;20.52;25.74
16331;BME280;8275;48.206;16.340;2024-03-17T11:18:36;99832.16;;;20.82;25.42
16331;BME280;8275;48.206;16.340;2024-03-17T11:21:18;99824.03;;;20.99;25.22
16331;BME280;8275;48.206;16.340;2024-03-17T11:23:59;99818.13;;;21.15;24.90
16331;BME280;8275;48.206;16.340;2024-03-17T11:26:29;99816.53;;;21.36;24.66
16331;BME280;8275;48.206;16.340;2024-03-17T11:28:56;99814.38;;;21.55;24.80
16331;BME280;8275;48.206;16.340;2024-03-17T11:31:44;99812.31;;;21.83;24.97
16331;BME280;8275;48.206;16.340;2024-03-17T11:34:35;99800.38;;;22.35;24.73
16331;BME280;8275;48.206;16.340;2024-03-17T11:37:06;99804.06;;;22.83;23.70
16331;BME280;8275;48.206;16.340;2024-03-17T11:39:49;99789.81;;;23.11;22.73
16331;BME280;8275;48.206;16.340;2024-03-17T11:42:19;99786.41;;;23.39;22.72
16331;BME280;8275;48.206;16.340;2024-03-17T11:45:04;99775.03;;;23.79;23.47
16331;BME280;8275;48.206;16.340;2024-03-17T11:47:40;99771.59;;;24.45;23.20
16331;BME280;8275;48.206;16.340;2024-03-17T11:50:09;99766.97;;;25.16;22.35
16331;BME280;8275;48.206;16.340;2024-03-17T11:52:38;99759.50;;;25.41;20.52
16331;BME280;8275;48.206;16.340;2024-03-17T11:55:17;99761.84;;;25.39;20.59
16331;BME280;8275;48.206;16.340;2024-03-17T11:57:46;99750.47;;;25.56;20.51
16331;BME280;8275;48.206;16.340;2024-03-17T12:00:20;99748.81;;;25.75;20.07
16331;BME280;8275;48.206;16.340;2024-03-17T12:02:51;99742.03;;;25.76;20.05
16331;BME280;8275;48.206;16.340;2024-03-17T12:05:19;99740.00;;;25.65;20.02
16331;BME280;8275;48.206;16.340;2024-03-17T12:07:48;99738.09;;;25.57;19.87
16331;BME280;8275;48.206;16.340;2024-03-17T12:10:17;99731.53;;;25.53;20.46
16331;BME280;8275;48.206;16.340;2024-03-17T12:12:47;99736.69;;;25.51;20.43
16331;BME280;8275;48.206;16.340;2024-03-17T12:15:18;99723.91;;;25.33;20.27
16331;BME280;8275;48.206;16.340;2024-03-17T12:17:46;99737.66;;;25.05;20.04
16331;BME280;8275;48.206;16.340;2024-03-17T12:20:19;99721.94;;;25.13;20.66
16331;BME280;8275;48.206;16.340;2024-03-17T12:22:47;99725.47;;;25.42;20.44
16331;BME280;8275;48.206;16.340;2024-03-17T12:25:18;99719.34;;;25.82;18.96
16331;BME280;8275;48.206;16.340;2024-03-17T12:27:47;99711.34;;;26.04;19.59
16331;BME280;8275;48.206;16.340;2024-03-17T12:30:15;99704.75;;;26.57;19.38
16331;BME280;8275;48.206;16.340;2024-03-17T12:32:43;99709.16;;;27.19;19.38
16331;BME280;8275;48.206;16.340;2024-03-17T12:35:16;99688.47;;;27.66;18.62
16331;BME280;8275;48.206;16.340;2024-03-17T12:37:45;99699.38;;;28.11;18.58
16331;BME280;8275;48.206;16.340;2024-03-17T12:40:21;99689.84;;;28.31;17.38
16331;BME280;8275;48.206;16.340;2024-03-17T12:42:50;99684.22;;;28.47;17.39
16331;BME280;8275;48.206;16.340;2024-03-17T12:45:22;99682.28;;;28.82;17.93
16331;BME280;8275;48.206;16.340;2024-03-17T12:47:50;99674.09;;;29.31;17.64
16331;BME280;8275;48.206;16.340;2024-03-17T12:50:22;99684.03;;;29.63;16.64
16331;BME280;8275;48.206;16.340;2024-03-17T12:52:55;99658.41;;;29.72;16.23
16331;BME280;8275;48.206;16.340;2024-03-17T12:55:23;99667.50;;;29.62;15.47
16331;BME280;8275;48.206;16.340;2024-03-17T12:58:10;99674.34;;;29.23;15.75
16331;BME280;8275;48.206;16.340;2024-03-17T13:01:00;99671.63;;;29.10;16.41
16331;BME280;8275;48.206;16.340;2024-03-17T13:03:32;99666.88;;;29.14;15.83
16331;BME280;8275;48.206;16.340;2024-03-17T13:06:01;99660.50;;;29.17;16.06
16331;BME280;8275;48.206;16.340;2024-03-17T13:08:32;99651.69;;;29.19;16.05
16331;BME280;8275;48.206;16.340;2024-03-17T13:11:00;99650.41;;;29.36;15.82
16331;BME280;8275;48.206;16.340;2024-03-17T13:13:30;99643.19;;;29.57;15.61